Terminal Aerodrome Forecast
Issued by NWS

Home | Current Version | Previous Version | Text Only | Print | Product List | Glossary On
Versions: 1 2 3 4 5 6 7 8 9 10 11 12 13 14 15 16 17 18 19 20
000
FTAK31 PAJN 182000 AAA
TAFAJN
TAF AMD
PAJN 182010Z 1820/1918 14010G18KT P6SM FEW012 SCT050 OVC070
     FM182100 10010G16KT P6SM VCSH SCT040 OVC100 WS020/07030KT
     FM190500 10007KT P6SM -SNRA BKN035 OVC070
     FM191700 10005KT P6SM -RA BKN040 OVC060=

USA.gov is the U.S. government's official web portal to all federal, state and local government web resources and services.